Time;durP1;ratioP1;P1;durP2;ratioP2;P2;SDS_P1;SDS_P2;PMS_P1;PMS_P2;Temp;Humidity;BMP_temperature;BMP_pressure;BME280_temperature;BME280_humidity;BME280_pressure;Samples;Min_cycle;Max_cycle;Signal;HPM_P1;HPM_P2
2022/01/27 00:01:00;;;;;;;458.48;430.85;;;5.70;99.90;;;;;;5071683;28;20062;-64
2022/01/27 00:03:31;;;;;;;490.00;461.13;;;5.70;99.90;;;;;;5073295;28;20052;-64
2022/01/27 00:06:02;;;;;;;457.42;430.98;;;5.70;99.90;;;;;;5072709;28;20178;-64
2022/01/27 00:08:37;;;;;;;447.00;421.27;;;5.70;99.90;;;;;;5073167;28;20109;-64
2022/01/27 00:11:10;;;;;;;472.35;444.52;;;5.80;99.90;;;;;;5072445;28;20055;-64
2022/01/27 00:13:44;;;;;;;521.20;484.25;;;5.90;99.90;;;;;;5072367;28;20055;-64
2022/01/27 00:16:13;;;;;;;513.25;475.45;;;5.80;99.90;;;;;;5073238;28;20055;-64
2022/01/27 00:18:41;;;;;;;449.98;423.58;;;5.80;99.90;;;;;;5062551;28;20047;-65
2022/01/27 00:21:07;;;;;;;469.85;439.45;;;5.80;99.90;;;;;;5052521;28;20052;-64
2022/01/27 00:23:32;;;;;;;433.15;408.02;;;5.80;99.90;;;;;;5053098;28;20519;-64
2022/01/27 00:25:59;;;;;;;487.38;454.08;;;5.80;99.90;;;;;;5052572;28;20403;-64
2022/01/27 00:28:24;;;;;;;484.90;452.45;;;5.80;99.90;;;;;;5067431;28;20040;-64
2022/01/27 00:30:50;;;;;;;491.98;459.30;;;5.80;99.90;;;;;;5073138;28;20054;-65
2022/01/27 00:33:16;;;;;;;461.10;434.05;;;5.80;99.90;;;;;;5072641;28;20052;-64
2022/01/27 00:35:41;;;;;;;425.73;400.75;;;5.80;99.90;;;;;;5071640;28;20052;-64
2022/01/27 00:38:07;;;;;;;449.50;423.50;;;5.80;99.90;;;;;;5073199;28;20037;-64
2022/01/27 00:40:33;;;;;;;514.63;482.38;;;5.80;99.90;;;;;;5072546;28;20139;-65
2022/01/27 00:42:59;;;;;;;456.48;429.90;;;5.70;99.90;;;;;;5072208;28;20089;-64
2022/01/27 00:45:25;;;;;;;499.40;460.00;;;5.70;99.90;;;;;;5072459;28;20101;-65
2022/01/27 00:47:51;;;;;;;578.00;514.28;;;5.70;99.90;;;;;;5067687;28;20033;-65
2022/01/27 00:50:18;;;;;;;469.55;440.30;;;5.70;99.90;;;;;;5051891;28;20483;-64
2022/01/27 00:52:51;;;;;;;447.00;420.88;;;5.70;99.90;;;;;;5053006;28;20170;-64
2022/01/27 00:55:17;;;;;;;515.50;479.10;;;5.70;99.90;;;;;;5069079;28;20040;-64
2022/01/27 00:58:04;;;;;;;403.92;380.65;;;5.80;99.90;;;;;;5072787;28;20052;-64
2022/01/27 01:00:35;;;;;;;459.50;431.65;;;5.80;99.90;;;;;;5072995;28;20047;-64
2022/01/27 01:03:07;;;;;;;444.98;417.95;;;5.80;99.90;;;;;;5071327;28;20083;-65
2022/01/27 01:05:57;;;;;;;449.02;423.42;;;5.90;99.90;;;;;;5072638;28;20045;-64
2022/01/27 01:11:30;;;;;;;406.55;382.00;;;5.80;99.90;;;;;;5071565;28;20044;-64
2022/01/27 01:19:15;;;;;;;484.58;454.23;;;5.80;99.90;;;;;;5056367;28;20402;-65
2022/01/27 01:30:09;;;;;;;449.70;422.63;;;5.80;99.90;;;;;;5055498;28;20045;-64
2022/01/27 01:35:08;;;;;;;505.48;471.65;;;5.70;99.90;;;;;;5056327;28;20060;-65
2022/01/27 01:37:39;;;;;;;510.55;476.45;;;5.60;99.90;;;;;;5057274;28;20091;-64
2022/01/27 01:40:10;;;;;;;434.73;408.42;;;5.60;99.90;;;;;;5076182;28;20096;-65
2022/01/27 01:42:35;;;;;;;498.92;469.85;;;5.60;99.90;;;;;;5076223;28;20632;-64
2022/01/27 01:45:05;;;;;;;420.45;396.02;;;5.60;99.90;;;;;;5075256;28;20102;-64
2022/01/27 01:47:31;;;;;;;459.30;431.63;;;5.50;99.90;;;;;;5062431;28;20049;-64
2022/01/27 01:49:57;;;;;;;417.30;389.40;;;5.50;99.90;;;;;;5036354;28;20040;-64
2022/01/27 01:52:24;;;;;;;506.08;473.10;;;5.40;99.90;;;;;;5035360;28;20087;-64
2022/01/27 01:54:51;;;;;;;462.27;433.98;;;5.40;99.90;;;;;;5035796;28;20081;-64
2022/01/27 01:57:17;;;;;;;479.25;450.30;;;5.40;99.90;;;;;;5073361;28;20111;-64
2022/01/27 01:59:43;;;;;;;466.83;433.75;;;5.40;99.90;;;;;;5075229;28;20144;-64
2022/01/27 02:02:12;;;;;;;460.58;433.23;;;5.50;99.90;;;;;;5075689;28;20371;-63
2022/01/27 02:04:39;;;;;;;549.38;511.52;;;5.50;99.90;;;;;;5075254;28;20375;-65
2022/01/27 02:07:12;;;;;;;493.50;459.05;;;5.50;99.90;;;;;;5074481;28;20056;-65
2022/01/27 02:10:02;;;;;;;;;;;5.50;99.90;;;;;;5074938;28;20040;-65
2022/01/27 02:17:59;;;;;;;462.42;433.38;;;5.50;99.90;;;;;;5064392;28;20460;-64
2022/01/27 02:20:26;;;;;;;457.02;425.80;;;5.40;99.90;;;;;;5053383;28;20584;-64
2022/01/27 02:22:52;;;;;;;482.08;453.77;;;5.50;99.90;;;;;;5064328;28;20049;-64
2022/01/27 02:25:18;;;;;;;435.00;408.30;;;5.50;99.90;;;;;;5074054;28;20113;-64
2022/01/27 02:27:44;;;;;;;484.38;445.85;;;5.50;99.90;;;;;;5073511;28;20036;-64
2022/01/27 02:30:10;;;;;;;415.10;390.23;;;5.50;99.90;;;;;;5073865;28;20045;-64
2022/01/27 02:32:36;;;;;;;511.13;473.38;;;5.50;99.90;;;;;;5073671;28;20036;-64
2022/01/27 02:35:04;;;;;;;479.15;445.48;;;5.50;99.90;;;;;;5073435;28;20394;-63
2022/01/27 02:37:30;;;;;;;477.40;446.35;;;5.50;99.90;;;;;;5073574;28;20055;-64
2022/01/27 02:39:55;;;;;;;416.58;392.20;;;5.50;99.90;;;;;;5073713;28;20036;-64
2022/01/27 02:42:29;;;;;;;426.73;401.08;;;5.50;99.90;;;;;;5073440;28;20062;-64
2022/01/27 02:45:00;;;;;;;474.23;444.02;;;5.50;99.90;;;;;;5073776;28;20044;-64
2022/01/27 02:47:26;;;;;;;442.85;412.73;;;5.60;99.90;;;;;;5072421;28;20048;-64
2022/01/27 02:49:52;;;;;;;628.25;512.72;;;5.60;99.90;;;;;;5067380;28;20110;-64
2022/01/27 02:52:18;;;;;;;482.73;450.95;;;5.60;99.90;;;;;;5073657;28;20040;-64
2022/01/27 02:54:44;;;;;;;389.48;366.55;;;5.70;99.90;;;;;;5073080;28;20052;-64
2022/01/27 02:57:10;;;;;;;416.58;388.55;;;5.70;99.90;;;;;;5073211;28;20037;-64
2022/01/27 02:59:35;;;;;;;455.30;426.77;;;5.70;99.90;;;;;;5073461;28;20086;-64
2022/01/27 03:02:01;;;;;;;459.98;432.67;;;5.70;99.90;;;;;;5072992;28;20032;-64
2022/01/27 03:04:30;;;;;;;526.45;486.52;;;5.70;99.90;;;;;;5073531;28;20498;-64
2022/01/27 03:06:56;;;;;;;473.85;441.30;;;5.70;99.90;;;;;;5036199;28;1049462;-64
2022/01/27 03:09:23;;;;;;;406.88;383.85;;;5.80;99.90;;;;;;5072596;28;20084;-63
2022/01/27 03:11:51;;;;;;;521.20;474.27;;;5.80;99.90;;;;;;5074756;28;20052;-64
2022/01/27 03:14:21;;;;;;;468.95;438.85;;;5.70;99.90;;;;;;5074156;28;20040;-64
2022/01/27 03:16:48;;;;;;;466.50;437.92;;;5.80;99.90;;;;;;5072621;28;20049;-64
2022/01/27 03:19:14;;;;;;;642.67;527.33;;;5.80;99.90;;;;;;5054437;28;20398;-64
2022/01/27 03:21:40;;;;;;;486.77;450.98;;;5.70;99.90;;;;;;5054199;28;20053;-64
2022/01/27 03:24:07;;;;;;;516.78;477.27;;;5.70;99.90;;;;;;5058090;28;20040;-65
2022/01/27 03:26:33;;;;;;;423.90;399.08;;;5.60;99.90;;;;;;5074239;28;20123;-63
2022/01/27 03:28:59;;;;;;;472.15;433.40;;;5.60;99.90;;;;;;5072864;28;20128;-64
2022/01/27 03:31:26;;;;;;;466.65;434.13;;;5.60;99.90;;;;;;5073232;28;20049;-64
2022/01/27 03:33:52;;;;;;;386.50;362.10;;;5.70;99.90;;;;;;5061164;28;20482;-64
2022/01/27 03:36:18;;;;;;;523.47;487.42;;;5.60;99.90;;;;;;5052907;28;20060;-64
2022/01/27 03:38:44;;;;;;;395.02;370.67;;;5.70;99.90;;;;;;5053425;28;20040;-64
2022/01/27 03:41:12;;;;;;;376.42;353.63;;;5.70;99.90;;;;;;5054094;28;20049;-64
2022/01/27 03:43:39;;;;;;;492.00;452.60;;;5.80;99.90;;;;;;5073099;28;20062;-64
2022/01/27 03:46:06;;;;;;;432.35;404.95;;;5.80;99.90;;;;;;5073094;28;20087;-64
2022/01/27 03:48:32;;;;;;;382.75;359.27;;;5.80;99.90;;;;;;5063446;28;20049;-64
2022/01/27 03:50:57;;;;;;;481.08;444.50;;;5.80;99.90;;;;;;5058448;28;20125;-64
2022/01/27 03:53:23;;;;;;;456.83;424.63;;;5.80;99.90;;;;;;5073790;28;20525;-64
2022/01/27 03:55:50;;;;;;;502.33;469.08;;;5.90;99.90;;;;;;5073699;28;20474;-64
2022/01/27 03:58:16;;;;;;;405.83;382.35;;;5.80;99.90;;;;;;5072768;28;20089;-64
2022/01/27 04:00:42;;;;;;;384.00;361.23;;;5.80;99.90;;;;;;5072669;28;20048;-64
2022/01/27 04:03:11;;;;;;;406.58;382.17;;;5.80;99.90;;;;;;5073648;28;20051;-64
2022/01/27 04:05:41;;;;;;;444.20;417.38;;;5.80;99.90;;;;;;5072651;28;20040;-63
2022/01/27 04:08:09;;;;;;;407.63;380.45;;;5.80;99.90;;;;;;5072445;28;20065;-64
2022/01/27 04:10:35;;;;;;;507.83;461.55;;;5.80;99.90;;;;;;5072098;28;20077;-64
2022/01/27 04:13:02;;;;;;;416.88;391.25;;;5.80;99.90;;;;;;5071145;28;20036;-64
2022/01/27 04:15:28;;;;;;;408.48;383.25;;;5.80;99.90;;;;;;5072922;28;20049;-63
2022/01/27 04:17:54;;;;;;;392.55;370.00;;;5.80;99.90;;;;;;5063326;28;20052;-63
2022/01/27 04:20:20;;;;;;;389.50;367.13;;;5.80;99.90;;;;;;5052517;28;20045;-63
2022/01/27 04:22:46;;;;;;;485.77;448.98;;;5.90;99.90;;;;;;5053019;28;20404;-64
2022/01/27 04:25:13;;;;;;;394.73;371.55;;;5.90;99.90;;;;;;5053233;28;20053;-63
2022/01/27 04:27:43;;;;;;;432.67;404.95;;;6.00;99.90;;;;;;5070039;28;20483;-64
2022/01/27 04:30:15;;;;;;;441.38;415.38;;;6.00;99.90;;;;;;5072939;28;20131;-64
2022/01/27 04:32:47;;;;;;;439.63;411.90;;;6.00;99.90;;;;;;5073302;28;20049;-64
2022/01/27 04:35:17;;;;;;;391.27;368.88;;;6.00;99.90;;;;;;5071577;28;20131;-64
2022/01/27 04:37:55;;;;;;;400.05;374.83;;;6.00;99.90;;;;;;5072844;28;20516;-64
2022/01/27 04:40:29;;;;;;;448.13;417.45;;;6.00;99.90;;;;;;5072106;28;20521;-64
2022/01/27 04:45:27;;;;;;;359.13;338.25;;;6.10;99.90;;;;;;5072471;28;20119;-63
2022/01/27 04:48:01;;;;;;;412.15;385.17;;;6.00;99.90;;;;;;5066884;28;20043;-64
2022/01/27 04:50:28;;;;;;;421.75;396.98;;;6.00;99.90;;;;;;5052676;28;20053;-64
2022/01/27 04:52:55;;;;;;;449.17;416.98;;;6.00;99.90;;;;;;5060003;28;20460;-64
2022/01/27 04:55:23;;;;;;;496.27;463.17;;;5.90;99.90;;;;;;5072140;28;20119;-64
2022/01/27 04:57:55;;;;;;;578.90;525.95;;;5.90;99.90;;;;;;5072718;28;20119;-64
2022/01/27 05:00:22;;;;;;;631.03;572.58;;;5.90;99.90;;;;;;5072870;28;20052;-65
2022/01/27 05:02:55;;;;;;;509.45;478.35;;;5.90;99.90;;;;;;5071340;28;20615;-64
2022/01/27 05:05:22;;;;;;;518.80;487.45;;;5.90;99.90;;;;;;5072348;28;20584;-64
2022/01/27 05:08:00;;;;;;;545.05;511.08;;;5.90;99.90;;;;;;5072493;28;20088;-63
2022/01/27 05:10:30;;;;;;;523.47;490.75;;;5.80;99.90;;;;;;5071437;28;20044;-65
2022/01/27 05:13:06;;;;;;;598.15;549.90;;;5.70;99.90;;;;;;5072290;28;20044;-64
2022/01/27 05:15:32;;;;;;;527.08;488.25;;;5.60;99.90;;;;;;5071601;28;20509;-65
2022/01/27 05:17:58;;;;;;;558.90;522.83;;;5.60;99.90;;;;;;5062633;28;20045;-64
2022/01/27 05:20:23;;;;;;;500.88;469.02;;;5.60;99.90;;;;;;5067191;28;20048;-64
2022/01/27 05:22:49;;;;;;;512.20;474.02;;;5.50;99.90;;;;;;5071930;28;20059;-64
2022/01/27 05:25:15;;;;;;;564.00;525.25;;;5.50;99.90;;;;;;5072652;28;20044;-64
2022/01/27 05:27:41;;;;;;;526.35;484.00;;;5.50;99.90;;;;;;5071543;28;20573;-65
2022/01/27 05:30:07;;;;;;;589.83;544.20;;;5.50;99.90;;;;;;5071805;28;20060;-65
2022/01/27 05:32:35;;;;;;;495.45;459.42;;;5.50;99.90;;;;;;5072544;28;20041;-65
2022/01/27 05:35:01;;;;;;;532.95;484.15;;;5.50;99.90;;;;;;5071917;28;20395;-65
2022/01/27 05:37:27;;;;;;;453.52;424.77;;;5.40;99.90;;;;;;5071288;28;20202;-64
2022/01/27 05:39:53;;;;;;;551.40;507.80;;;5.40;99.90;;;;;;5072308;28;20135;-65
2022/01/27 05:42:18;;;;;;;431.23;404.15;;;5.40;99.90;;;;;;5072048;28;20048;-65
2022/01/27 05:44:44;;;;;;;522.13;479.58;;;5.40;99.90;;;;;;5071342;28;20084;-65
2022/01/27 05:47:10;;;;;;;498.15;466.05;;;5.40;99.90;;;;;;5071575;28;20418;-64
2022/01/27 05:49:36;;;;;;;493.67;461.10;;;5.50;99.90;;;;;;5052637;28;20064;-65
2022/01/27 05:52:01;;;;;;;468.95;437.95;;;5.40;99.90;;;;;;5051709;28;20044;-65
2022/01/27 05:54:27;;;;;;;479.48;448.23;;;5.40;99.90;;;;;;5055953;28;20079;-65
2022/01/27 05:56:53;;;;;;;518.83;483.38;;;5.40;99.90;;;;;;5072035;28;20055;-66
2022/01/27 05:59:20;;;;;;;502.40;467.80;;;5.40;99.90;;;;;;5073144;28;20040;-65
2022/01/27 06:01:46;;;;;;;524.47;489.55;;;5.40;99.90;;;;;;5076026;28;20123;-65
2022/01/27 06:04:12;;;;;;;913.30;574.78;;;5.30;99.90;;;;;;5074886;28;20044;-65
2022/01/27 06:06:38;;;;;;;582.00;542.65;;;5.40;99.90;;;;;;5074820;28;20072;-65
2022/01/27 06:09:04;;;;;;;642.60;592.50;;;5.40;99.90;;;;;;5075585;28;20060;-65
2022/01/27 06:11:30;;;;;;;623.70;573.70;;;5.40;99.90;;;;;;5075431;28;20040;-66
2022/01/27 06:13:56;;;;;;;558.70;521.05;;;5.40;99.90;;;;;;5075030;28;20174;-64
2022/01/27 06:16:21;;;;;;;551.65;511.23;;;5.40;99.90;;;;;;5075796;28;20044;-65
2022/01/27 06:18:47;;;;;;;546.35;509.15;;;5.40;99.90;;;;;;5057761;28;20049;-65
2022/01/27 06:21:13;;;;;;;549.97;512.90;;;5.50;99.90;;;;;;5060936;28;20048;-65
2022/01/27 06:23:39;;;;;;;557.28;520.05;;;5.50;99.90;;;;;;5075398;28;20048;-66
2022/01/27 06:26:05;;;;;;;571.28;532.85;;;5.50;99.90;;;;;;5074257;28;20170;-65
2022/01/27 06:28:31;;;;;;;564.72;527.05;;;5.50;99.90;;;;;;5074858;28;20048;-65
2022/01/27 06:30:56;;;;;;;565.00;517.72;;;5.50;99.90;;;;;;5074984;28;20044;-66
2022/01/27 06:33:22;;;;;;;538.53;503.33;;;5.60;99.90;;;;;;5074632;28;20041;-65
2022/01/27 06:35:49;;;;;;;519.90;484.90;;;5.60;99.90;;;;;;5075063;28;20074;-66
2022/01/27 06:38:14;;;;;;;550.58;512.83;;;5.60;99.90;;;;;;5074489;28;20052;-66
2022/01/27 06:40:40;;;;;;;604.17;560.42;;;5.60;99.90;;;;;;5074380;28;20044;-66
2022/01/27 06:43:06;;;;;;;535.35;500.38;;;5.60;99.90;;;;;;5074854;28;20127;-65
2022/01/27 06:45:32;;;;;;;552.03;513.13;;;5.70;99.90;;;;;;5075136;28;20420;-64
2022/01/27 06:47:57;;;;;;;562.92;526.25;;;5.70;99.90;;;;;;5067937;28;20040;-65
2022/01/27 06:50:23;;;;;;;511.30;479.00;;;5.70;99.90;;;;;;5054461;28;20118;-64
2022/01/27 06:52:49;;;;;;;581.22;542.50;;;5.70;99.90;;;;;;5053601;28;20076;-64
2022/01/27 06:55:21;;;;;;;535.55;501.60;;;5.70;99.90;;;;;;5054301;28;20084;-65
2022/01/27 06:57:47;;;;;;;547.58;512.80;;;5.80;99.90;;;;;;5069748;28;20102;-65
2022/01/27 07:00:14;;;;;;;573.78;533.50;;;5.80;99.90;;;;;;5074622;28;20466;-64
2022/01/27 07:02:39;;;;;;;547.80;511.27;;;5.80;99.90;;;;;;5074063;28;20120;-65
2022/01/27 07:05:05;;;;;;;513.00;480.77;;;5.80;99.90;;;;;;5072550;28;20528;-65
2022/01/27 07:07:31;;;;;;;513.67;482.05;;;5.90;99.90;;;;;;5074449;28;20136;-64
2022/01/27 07:09:57;;;;;;;540.15;501.27;;;5.90;99.90;;;;;;5073023;28;20121;-64
2022/01/27 07:12:22;;;;;;;502.38;471.40;;;5.90;99.90;;;;;;5073848;28;20409;-64
2022/01/27 07:14:48;;;;;;;515.78;482.52;;;5.90;99.90;;;;;;5073750;28;20093;-66
2022/01/27 07:17:17;;;;;;;558.17;519.35;;;6.00;99.90;;;;;;5070334;28;20094;-66
2022/01/27 07:19:42;;;;;;;543.55;509.50;;;6.00;99.90;;;;;;5054089;28;20073;-66
2022/01/27 07:22:08;;;;;;;509.83;478.30;;;6.00;99.90;;;;;;5053536;28;20784;-66
2022/01/27 07:24:34;;;;;;;561.78;524.20;;;6.10;99.90;;;;;;5071836;28;20064;-65
2022/01/27 07:27:00;;;;;;;495.85;466.17;;;6.10;99.90;;;;;;5072370;28;20135;-65
2022/01/27 07:29:25;;;;;;;480.95;451.55;;;6.10;99.90;;;;;;5073509;28;20037;-66
2022/01/27 07:31:51;;;;;;;448.63;423.02;;;6.20;99.90;;;;;;5073679;28;20474;-65
2022/01/27 07:34:17;;;;;;;519.45;484.58;;;6.20;99.90;;;;;;5073911;28;20051;-65
2022/01/27 07:36:43;;;;;;;506.20;475.73;;;6.20;99.90;;;;;;5073195;28;20127;-65
2022/01/27 07:39:14;;;;;;;414.77;390.77;;;6.20;99.90;;;;;;5074148;28;20467;-63
2022/01/27 07:41:40;;;;;;;435.77;410.63;;;6.30;99.90;;;;;;5072886;28;20060;-65
2022/01/27 07:44:06;;;;;;;517.10;482.25;;;6.30;99.90;;;;;;5073284;28;20074;-64
2022/01/27 07:46:32;;;;;;;474.52;445.10;;;6.30;99.90;;;;;;5073795;28;20127;-64
2022/01/27 07:48:57;;;;;;;501.40;469.25;;;6.30;99.90;;;;;;5059247;28;20395;-64
2022/01/27 07:51:24;;;;;;;411.42;387.80;;;6.30;99.90;;;;;;5072703;28;20186;-62
2022/01/27 07:53:50;;;;;;;384.15;363.48;;;6.40;99.90;;;;;;5073846;28;20123;-64
2022/01/27 07:56:15;;;;;;;427.90;402.58;;;6.40;99.90;;;;;;5072960;28;20139;-64
2022/01/27 07:58:43;;;;;;;493.30;461.95;;;6.50;99.90;;;;;;5072464;28;20037;-63
2022/01/27 08:01:09;;;;;;;390.30;369.33;;;6.60;99.90;;;;;;5073662;28;20041;-63
2022/01/27 08:03:37;;;;;;;396.08;373.40;;;6.60;99.90;;;;;;5071849;28;20088;-63
2022/01/27 08:06:05;;;;;;;424.90;401.02;;;6.60;99.90;;;;;;5072506;28;20109;-64
2022/01/27 08:08:30;;;;;;;355.35;335.92;;;6.60;99.90;;;;;;5072568;28;20082;-63
2022/01/27 08:10:57;;;;;;;346.60;326.08;;;6.70;99.90;;;;;;5073192;28;20044;-63
2022/01/27 08:13:22;;;;;;;396.73;375.15;;;6.80;99.90;;;;;;5072435;28;20453;-63
2022/01/27 08:15:48;;;;;;;310.20;292.65;;;6.80;99.90;;;;;;5072722;28;20040;-63
2022/01/27 08:18:14;;;;;;;327.08;308.77;;;6.80;99.90;;;;;;5056475;28;20541;-64
2022/01/27 08:20:40;;;;;;;338.40;317.05;;;6.90;99.90;;;;;;5053205;28;20055;-64
2022/01/27 08:23:06;;;;;;;284.90;270.35;;;6.90;99.90;;;;;;5052873;28;20052;-63
2022/01/27 08:25:34;;;;;;;429.05;399.98;;;6.90;99.90;;;;;;5061477;28;20064;-63
2022/01/27 08:28:04;;;;;;;399.42;375.35;;;7.00;99.90;;;;;;5073297;28;20072;-64
2022/01/27 08:30:37;;;;;;;242.45;229.45;;;7.00;99.90;;;;;;5073142;28;20123;-62
2022/01/27 08:33:05;;;;;;;323.95;306.45;;;7.10;99.90;;;;;;5053615;28;20124;-64
2022/01/27 08:35:32;;;;;;;259.98;246.52;;;7.10;99.90;;;;;;5049805;28;20045;-63
2022/01/27 08:37:58;;;;;;;287.08;271.35;;;7.20;99.90;;;;;;5052918;28;20045;-63
2022/01/27 08:40:25;;;;;;;312.25;295.83;;;7.20;99.90;;;;;;5049384;28;20045;-63
2022/01/27 08:42:51;;;;;;;278.85;264.10;;;7.20;99.90;;;;;;5050440;28;20045;-62
2022/01/27 08:45:20;;;;;;;274.42;259.15;;;7.30;99.90;;;;;;5050968;28;20049;-63
2022/01/27 08:47:47;;;;;;;349.83;328.95;;;7.30;99.90;;;;;;5047296;28;20042;-63
2022/01/27 08:50:14;;;;;;;339.52;318.52;;;7.40;99.90;;;;;;5060674;28;20033;-64
2022/01/27 08:52:43;;;;;;;298.38;282.15;;;7.40;99.90;;;;;;5066329;28;20113;-63
2022/01/27 08:55:09;;;;;;;268.95;254.68;;;7.40;99.90;;;;;;5071750;28;20367;-62
2022/01/27 08:57:36;;;;;;;265.00;251.20;;;7.40;99.90;;;;;;5065621;28;20069;-63
2022/01/27 09:00:05;;;;;;;293.58;277.10;;;7.50;99.90;;;;;;5050258;28;20041;-64
2022/01/27 09:02:30;;;;;;;303.63;286.98;;;7.50;99.90;;;;;;5041750;28;20048;-63
2022/01/27 09:04:56;;;;;;;269.38;254.65;;;7.50;99.90;;;;;;5052410;28;20402;-61
2022/01/27 09:07:22;;;;;;;300.52;284.98;;;7.50;99.90;;;;;;5037794;28;20053;-63
2022/01/27 09:09:48;;;;;;;390.88;364.88;;;7.60;99.90;;;;;;5051009;28;20106;-62
2022/01/27 09:12:14;;;;;;;263.27;249.73;;;7.60;99.90;;;;;;5055118;28;20041;-63
2022/01/27 09:14:42;;;;;;;270.40;256.60;;;7.60;99.90;;;;;;5051309;28;20152;-63
2022/01/27 09:17:11;;;;;;;256.27;242.30;;;7.60;99.90;;;;;;5049608;28;20123;-62
2022/01/27 09:19:39;;;;;;;186.43;176.40;;;7.60;99.90;;;;;;5049951;28;20036;-62
2022/01/27 09:22:11;;;;;;;302.88;285.45;;;7.60;99.90;;;;;;5051492;28;20170;-63
2022/01/27 09:24:40;;;;;;;219.27;208.48;;;7.60;99.90;;;;;;5051346;28;20441;-62
2022/01/27 09:27:07;;;;;;;190.65;180.13;;;7.60;99.90;;;;;;5058718;28;20043;-62
2022/01/27 09:29:33;;;;;;;316.83;298.65;;;7.70;99.90;;;;;;5071475;28;20049;-63
2022/01/27 09:32:01;;;;;;;290.60;273.73;;;7.70;99.90;;;;;;5072192;28;20105;-63
2022/01/27 09:34:27;;;;;;;272.20;257.90;;;7.70;99.90;;;;;;5074022;28;20044;-63
2022/01/27 09:36:54;;;;;;;234.60;222.50;;;7.70;99.90;;;;;;5063063;28;20060;-63
2022/01/27 09:39:22;;;;;;;365.95;343.42;;;7.80;99.90;;;;;;5065501;28;20044;-64
2022/01/27 09:41:53;;;;;;;340.55;322.33;;;7.80;99.90;;;;;;5064876;28;20111;-63
2022/01/27 09:44:20;;;;;;;294.73;278.77;;;7.90;99.90;;;;;;5057204;28;21234;-63
2022/01/27 09:46:46;;;;;;;269.13;254.93;;;7.90;99.90;;;;;;5075841;28;20478;-63
2022/01/27 09:49:16;;;;;;;282.75;262.08;;;7.90;99.90;;;;;;5059256;28;20064;-63
2022/01/27 09:51:45;;;;;;;266.88;253.20;;;7.90;99.90;;;;;;5055371;28;20063;-63
2022/01/27 09:54:12;;;;;;;289.92;273.80;;;8.00;99.90;;;;;;5064684;28;20048;-63
2022/01/27 09:56:40;;;;;;;166.98;157.90;;;8.00;99.90;;;;;;5073976;28;20406;-62
2022/01/27 09:59:07;;;;;;;147.57;139.88;;;8.00;99.90;;;;;;5075824;28;20124;-62
2022/01/27 10:01:34;;;;;;;212.38;201.82;;;8.00;99.90;;;;;;5075372;28;20056;-63
2022/01/27 10:04:06;;;;;;;269.00;253.63;;;8.20;99.90;;;;;;5074279;28;20044;-63
2022/01/27 10:06:37;;;;;;;335.33;317.38;;;8.20;99.90;;;;;;5059933;28;20061;-65
2022/01/27 10:09:22;;;;;;;253.35;238.23;;;8.20;99.90;;;;;;5055258;28;20051;-64
2022/01/27 10:11:50;;;;;;;222.60;210.77;;;8.30;99.90;;;;;;5064695;28;20040;-64
2022/01/27 10:14:20;;;;;;;318.95;288.65;;;8.30;99.90;;;;;;5059385;28;20382;-65
2022/01/27 10:16:49;;;;;;;326.85;295.85;;;8.30;99.90;;;;;;5054271;28;20463;-64
2022/01/27 10:19:15;;;;;;;419.73;387.20;;;8.30;99.90;;;;;;5054219;28;20037;-63
2022/01/27 10:21:41;;;;;;;213.27;202.40;;;8.30;99.90;;;;;;5066638;28;20055;-63
2022/01/27 10:24:19;;;;;;;314.30;296.75;;;8.40;99.90;;;;;;5054859;28;20049;-62
2022/01/27 10:26:53;;;;;;;209.25;198.40;;;8.40;99.90;;;;;;5054720;28;20051;-61
2022/01/27 10:29:34;;;;;;;352.63;326.02;;;8.40;99.90;;;;;;5064136;28;20055;-61
2022/01/27 10:32:06;;;;;;;277.83;262.98;;;8.40;99.90;;;;;;5074706;28;20449;-62
2022/01/27 10:34:54;;;;;;;303.35;286.27;;;8.40;99.90;;;;;;5075436;28;20055;-62
2022/01/27 10:37:20;;;;;;;277.65;262.17;;;8.40;99.90;;;;;;5074825;28;20052;-61
2022/01/27 10:39:48;;;;;;;226.65;214.77;;;8.40;99.90;;;;;;5074320;28;20484;-61
2022/01/27 10:42:14;;;;;;;203.80;193.45;;;8.40;99.90;;;;;;5075277;28;20040;-61
2022/01/27 10:44:46;;;;;;;323.20;300.23;;;8.50;99.90;;;;;;5074871;28;20049;-63
2022/01/27 10:47:18;;;;;;;439.20;403.20;;;8.50;99.90;;;;;;5073529;28;20131;-63
2022/01/27 10:49:50;;;;;;;191.18;181.18;;;8.50;99.90;;;;;;5035163;28;20042;-61
2022/01/27 10:52:21;;;;;;;290.50;275.10;;;8.50;99.90;;;;;;5035038;28;20049;-63
2022/01/27 10:54:56;;;;;;;310.55;294.20;;;8.50;99.90;;;;;;5033728;28;20124;-61
2022/01/27 10:57:24;;;;;;;259.77;246.48;;;8.60;99.90;;;;;;5034558;28;20049;-61
2022/01/27 11:00:05;;;;;;;244.45;231.73;;;8.60;99.90;;;;;;5035067;28;20096;-62
2022/01/27 11:02:31;;;;;;;344.15;319.58;;;8.50;99.90;;;;;;5033645;28;20041;-62
2022/01/27 11:04:57;;;;;;;300.10;282.38;;;8.50;99.90;;;;;;5056270;28;20059;-61
2022/01/27 11:07:25;;;;;;;253.77;240.13;;;8.60;99.90;;;;;;5073654;28;20064;-61
2022/01/27 11:09:53;;;;;;;230.57;218.40;;;8.60;99.90;;;;;;5074206;28;20171;-62
2022/01/27 11:12:19;;;;;;;248.98;235.35;;;8.60;99.90;;;;;;5074733;28;20402;-62
2022/01/27 11:14:48;;;;;;;270.35;255.50;;;8.60;99.90;;;;;;5073108;28;20032;-62
2022/01/27 11:17:19;;;;;;;246.30;233.55;;;8.70;99.90;;;;;;5070278;28;20131;-61
2022/01/27 11:27:33;;;;;;;275.70;261.63;;;8.90;99.90;;;;;;5051865;28;20407;-62
2022/01/27 11:30:10;;;;;;;316.02;294.65;;;8.90;99.90;;;;;;5051757;28;20280;-61
2022/01/27 11:32:57;;;;;;;239.45;227.48;;;8.90;99.90;;;;;;5054567;28;20048;-62
2022/01/27 11:35:25;;;;;;;251.30;237.52;;;8.90;99.90;;;;;;5050495;28;20767;-62
2022/01/27 11:37:53;;;;;;;249.73;236.57;;;8.90;99.90;;;;;;5052916;28;20474;-62
2022/01/27 11:40:21;;;;;;;430.83;394.45;;;8.80;99.90;;;;;;5055018;28;20560;-62
2022/01/27 11:42:55;;;;;;;208.02;195.65;;;8.80;99.90;;;;;;5052976;28;20079;-61
2022/01/27 11:45:21;;;;;;;210.52;198.73;;;8.80;99.90;;;;;;5053298;28;20117;-61
2022/01/27 11:47:53;;;;;;;224.43;211.75;;;8.90;99.90;;;;;;5053898;28;20100;-61
2022/01/27 11:50:33;;;;;;;201.00;189.70;;;8.80;99.90;;;;;;5073039;28;20049;-61
2022/01/27 11:53:01;;;;;;;194.75;184.45;;;8.80;99.90;;;;;;5073670;28;20053;-62
2022/01/27 11:55:26;;;;;;;267.10;250.98;;;8.80;99.90;;;;;;5073471;28;20060;-62
2022/01/27 11:57:54;;;;;;;178.75;168.93;;;8.80;99.90;;;;;;5071755;28;20123;-61
2022/01/27 12:00:26;;;;;;;243.98;227.85;;;8.80;99.90;;;;;;5072978;28;20045;-61
2022/01/27 12:03:07;;;;;;;204.00;192.15;;;8.80;99.90;;;;;;5067453;28;20048;-62
2022/01/27 12:05:35;;;;;;;249.45;234.65;;;8.80;99.90;;;;;;5052470;28;20289;-60
2022/01/27 12:08:20;;;;;;;166.18;157.15;;;8.80;99.90;;;;;;5072125;28;20070;-61
2022/01/27 12:10:49;;;;;;;233.98;218.63;;;8.80;99.90;;;;;;5072577;28;20040;-61
2022/01/27 12:13:28;;;;;;;313.17;286.88;;;8.80;99.90;;;;;;5073432;28;20068;-62
2022/01/27 12:19:03;;;;;;;227.13;210.27;;;8.80;99.90;;;;;;5056141;28;20667;-61
2022/01/27 12:21:37;;;;;;;182.25;171.15;;;8.80;99.90;;;;;;5051389;28;20376;-62
2022/01/27 12:26:49;;;;;;;212.20;198.13;;;8.80;99.90;;;;;;5072590;28;20094;-61
2022/01/27 12:29:32;;;;;;;207.23;193.45;;;8.80;99.90;;;;;;5072982;28;20048;-61
2022/01/27 12:32:07;;;;;;;132.32;124.53;;;8.80;99.90;;;;;;5072612;28;20101;-61
2022/01/27 12:34:36;;;;;;;245.18;226.43;;;8.90;99.90;;;;;;5066666;28;20207;-62
2022/01/27 12:37:06;;;;;;;240.35;222.98;;;8.90;99.90;;;;;;5052117;28;20049;-62
2022/01/27 12:39:36;;;;;;;168.73;158.82;;;8.90;99.90;;;;;;5050728;28;20057;-62
2022/01/27 12:42:05;;;;;;;251.02;232.75;;;8.80;99.90;;;;;;5052474;28;20041;-62
2022/01/27 12:44:31;;;;;;;229.32;213.93;;;8.80;99.90;;;;;;5064124;28;20036;-61
2022/01/27 12:47:06;;;;;;;279.55;254.80;;;8.70;99.90;;;;;;5071961;28;20386;-61
2022/01/27 12:49:42;;;;;;;197.18;184.43;;;8.70;99.90;;;;;;5053885;28;20505;-61
2022/01/27 12:52:11;;;;;;;288.85;267.38;;;8.80;99.90;;;;;;5068092;28;20477;-61
2022/01/27 12:54:38;;;;;;;251.65;234.90;;;8.80;99.90;;;;;;5032353;28;20050;-61
2022/01/27 12:57:06;;;;;;;213.52;200.60;;;8.80;99.90;;;;;;5032549;28;20099;-62
2022/01/27 12:59:35;;;;;;;293.13;272.48;;;8.80;99.90;;;;;;5039203;28;20053;-61
2022/01/27 13:02:06;;;;;;;200.88;189.10;;;8.80;99.90;;;;;;5062833;28;20082;-61
2022/01/27 13:04:33;;;;;;;175.43;164.82;;;8.90;99.90;;;;;;5072236;28;20049;-62